Thomaston, Indiana
Current Conditions -  °F | °C
As of 10:56 PM on Tuesday 25 Nov 2014 (Local Time) from KVPZ Reporting Station
Overcast Overcast  
Wind Chill: 14°   Ceiling: 1200
Heat Index: 23°   Visibility: 10mi
Dew Point: 18°   Wind: 8mph
Humidity: 81%   Direction: 190°S
Pressure: 30.21"   Gusts: NA
Location:  41.4092°N, 86.8646°W
Report Text: KVPZ 260456Z AUTO 19007KT 10SM OVC012 M05/M08 A3021 RMK AO2 SLP240 T10501078 TSNO
Loading
Personal Weather Stations






























Interactive Weather Map New forecast layout! Learn more

10-Day Weather Forecast

Advertisements
Track Severe Weather on mobile